createdAt,value
2022-08-14T00:00:29.860Z,27.18
2022-08-14T00:01:29.087Z,27.20
2022-08-14T00:02:31.515Z,27.18
2022-08-14T00:03:29.429Z,27.14
2022-08-14T00:04:35.032Z,27.14
2022-08-14T00:05:28.988Z,27.10
2022-08-14T00:06:29.385Z,27.10
2022-08-14T00:07:29.488Z,27.12
2022-08-14T00:08:45.429Z,27.11
2022-08-14T00:09:28.931Z,27.14
2022-08-14T00:10:52.226Z,27.12
2022-08-14T00:11:32.055Z,27.07
2022-08-14T00:12:33.156Z,27.14
2022-08-14T00:13:28.899Z,27.08
2022-08-14T00:14:28.914Z,27.07
2022-08-14T00:15:29.948Z,27.08
2022-08-14T00:16:40.337Z,27.08
2022-08-14T00:17:28.821Z,27.08
2022-08-14T00:18:30.489Z,27.07
2022-08-14T00:19:29.551Z,27.11
2022-08-14T00:20:31.008Z,27.12
2022-08-14T00:21:31.012Z,27.12
2022-08-14T00:22:56.129Z,27.03
2022-08-14T00:23:28.761Z,27.07
2022-08-14T00:24:30.747Z,27.11
2022-08-14T00:25:41.899Z,27.05
2022-08-14T00:26:28.690Z,26.99
2022-08-14T00:27:28.732Z,27.02
2022-08-14T00:28:32.469Z,27.07
2022-08-14T00:29:28.636Z,27.02
2022-08-14T00:30:28.660Z,27.02
2022-08-14T00:31:35.190Z,27.00
2022-08-14T00:32:52.512Z,27.00
2022-08-14T00:33:50.802Z,26.96
2022-08-14T00:34:37.818Z,26.90
2022-08-14T00:36:36.688Z,26.90
2022-08-14T00:36:37.635Z,26.89
2022-08-14T00:37:28.554Z,26.90
2022-08-14T00:38:29.496Z,26.92
2022-08-14T00:39:28.511Z,26.80
2022-08-14T00:40:33.452Z,26.88
2022-08-14T00:41:28.570Z,26.77
2022-08-14T00:42:55.966Z,26.77
2022-08-14T00:43:32.230Z,26.74
2022-08-14T00:44:32.561Z,26.78
2022-08-14T00:45:30.543Z,26.78
2022-08-14T00:46:33.068Z,26.68
2022-08-14T00:47:28.411Z,26.63
2022-08-14T00:48:34.337Z,26.59
2022-08-14T00:49:28.355Z,26.60
2022-08-14T00:50:28.331Z,26.66
2022-08-14T00:51:34.778Z,26.66
2022-08-14T00:52:28.349Z,26.55
2022-08-14T00:53:28.310Z,26.47
2022-08-14T00:54:28.992Z,26.52
2022-08-14T00:55:28.258Z,26.52
2022-08-14T00:56:31.358Z,26.52
2022-08-14T00:57:29.031Z,26.51
2022-08-14T00:58:32.529Z,26.44
2022-08-14T00:59:28.549Z,26.45
2022-08-14T01:00:37.133Z,26.44
2022-08-14T01:01:29.067Z,26.36
2022-08-14T01:02:31.635Z,26.34
2022-08-14T01:03:28.136Z,26.29
2022-08-14T01:04:38.081Z,26.33
2022-08-14T01:05:41.620Z,26.28
2022-08-14T01:06:30.211Z,26.36
2022-08-14T01:07:28.072Z,26.33
2022-08-14T01:08:51.690Z,26.23
2022-08-14T01:09:28.062Z,26.28
2022-08-14T01:10:28.109Z,26.18
2022-08-14T01:11:35.487Z,26.25
2022-08-14T01:12:29.790Z,26.31
2022-08-14T01:13:28.502Z,26.25
2022-08-14T01:14:28.722Z,26.15
2022-08-14T01:15:58.073Z,26.13
2022-08-14T01:16:30.895Z,26.15
2022-08-14T01:17:27.950Z,26.15
2022-08-14T01:18:27.926Z,26.15
2022-08-14T01:19:27.922Z,26.05
2022-08-14T01:20:29.833Z,26.07
2022-08-14T01:21:27.885Z,26.07
2022-08-14T01:22:29.559Z,26.03
2022-08-14T01:23:27.855Z,26.06
2022-08-14T01:24:30.942Z,26.03
2022-08-14T01:25:27.857Z,26.06
2022-08-14T01:26:35.031Z,26.03
2022-08-14T01:27:27.786Z,26.06
2022-08-14T01:28:46.248Z,26.02
2022-08-14T01:29:36.451Z,26.05
2022-08-14T01:30:28.516Z,26.09
2022-08-14T01:31:27.718Z,26.03
2022-08-14T01:32:27.708Z,26.00
2022-08-14T01:33:27.708Z,26.03
2022-08-14T01:35:19.905Z,25.96
2022-08-14T01:36:04.624Z,25.99
2022-08-14T01:36:27.711Z,25.88
2022-08-14T01:37:27.625Z,25.95
2022-08-14T01:38:27.622Z,25.98
2022-08-14T01:39:27.642Z,25.88
2022-08-14T01:40:36.998Z,25.93
2022-08-14T01:41:29.768Z,25.91
2022-08-14T01:42:31.623Z,25.84
2022-08-14T01:43:27.561Z,25.83
2022-08-14T01:44:33.055Z,25.83
2022-08-14T01:45:27.512Z,25.84
2022-08-14T01:46:33.426Z,25.78
2022-08-14T01:47:27.507Z,25.78
2022-08-14T01:48:27.459Z,25.77
2022-08-14T01:49:35.205Z,25.78
2022-08-14T01:50:27.457Z,25.70
2022-08-14T01:51:27.421Z,25.75
2022-08-14T01:52:58.080Z,25.78
2022-08-14T01:53:31.515Z,25.73
2022-08-14T01:54:38.046Z,25.75
2022-08-14T01:55:27.431Z,25.68
2022-08-14T01:56:27.348Z,25.68
2022-08-14T01:57:49.605Z,25.68
2022-08-14T01:58:28.913Z,25.63
2022-08-14T01:59:27.282Z,25.62
2022-08-14T02:00:27.828Z,25.58
2022-08-14T02:01:27.303Z,25.59
2022-08-14T02:02:27.964Z,25.62
2022-08-14T02:03:30.038Z,25.62
2022-08-14T02:04:55.171Z,25.51
2022-08-14T02:05:27.200Z,25.60
2022-08-14T02:06:33.045Z,25.53
2022-08-14T02:07:44.884Z,25.59
2022-08-14T02:08:35.389Z,25.63
2022-08-14T02:09:27.168Z,25.59
2022-08-14T02:10:27.216Z,25.54
2022-08-14T02:11:27.144Z,25.58
2022-08-14T02:12:29.437Z,25.63
2022-08-14T02:13:27.079Z,25.63
2022-08-14T02:14:31.068Z,25.63
2022-08-14T02:15:27.056Z,25.54
2022-08-14T02:16:27.595Z,25.62
2022-08-14T02:17:27.010Z,25.55
2022-08-14T02:18:26.998Z,25.60
2022-08-14T02:19:26.998Z,25.65
2022-08-14T02:20:26.991Z,25.63
2022-08-14T02:21:27.258Z,25.58
2022-08-14T02:22:29.241Z,25.59
2022-08-14T02:23:32.105Z,25.58
2022-08-14T02:24:39.752Z,25.63
2022-08-14T02:25:31.003Z,25.60
2022-08-14T02:26:29.204Z,25.63
2022-08-14T02:28:24.385Z,25.63
2022-08-14T02:28:57.565Z,25.59
2022-08-14T02:29:26.837Z,25.63
2022-08-14T02:30:26.881Z,25.62
2022-08-14T02:31:28.649Z,25.60
2022-08-14T02:32:30.613Z,25.55
2022-08-14T02:33:26.837Z,25.59
2022-08-14T02:34:27.502Z,25.59
2022-08-14T02:35:26.732Z,25.65
2022-08-14T02:37:05.466Z,25.63
2022-08-14T02:37:26.711Z,25.62
2022-08-14T02:38:30.060Z,25.55
2022-08-14T02:39:27.769Z,25.63
2022-08-14T02:40:32.269Z,25.60
2022-08-14T02:41:28.923Z,25.54
2022-08-14T02:42:37.078Z,25.53
2022-08-14T02:43:36.516Z,25.44
2022-08-14T02:44:29.543Z,25.36
2022-08-14T02:45:33.548Z,25.41
2022-08-14T02:46:32.035Z,25.46
2022-08-14T02:47:26.573Z,25.46
2022-08-14T02:49:01.918Z,25.46
2022-08-14T02:49:26.519Z,25.43
2022-08-14T02:50:27.096Z,25.46
2022-08-14T02:51:30.354Z,25.46
2022-08-14T02:52:54.610Z,25.33
2022-08-14T02:53:27.066Z,25.38
2022-08-14T02:54:26.521Z,25.31
2022-08-14T02:55:27.058Z,25.31
2022-08-14T02:56:30.645Z,25.31
2022-08-14T02:57:40.297Z,25.32
2022-08-14T02:58:29.367Z,25.32
2022-08-14T02:59:26.376Z,25.32
2022-08-14T03:00:26.372Z,25.41
2022-08-14T03:01:31.350Z,25.32
2022-08-14T03:02:48.943Z,25.38
2022-08-14T03:03:26.328Z,25.32
2022-08-14T03:04:27.094Z,25.33
2022-08-14T03:05:27.102Z,25.43
2022-08-14T03:06:34.661Z,25.36
2022-08-14T03:07:27.111Z,25.40
2022-08-14T03:08:26.248Z,25.41
2022-08-14T03:10:25.028Z,25.44
2022-08-14T03:10:32.239Z,25.36
2022-08-14T03:11:26.201Z,25.40
2022-08-14T03:12:31.549Z,25.40
2022-08-14T03:13:26.161Z,25.38
2022-08-14T03:14:27.612Z,25.36
2022-08-14T03:15:27.111Z,25.36
2022-08-14T03:16:27.172Z,25.44
2022-08-14T03:17:26.090Z,25.29
2022-08-14T03:18:31.457Z,25.38
2022-08-14T03:19:26.074Z,25.40
2022-08-14T03:20:26.087Z,25.41
2022-08-14T03:21:26.079Z,25.36
2022-08-14T03:22:27.787Z,25.40
2022-08-14T03:23:26.005Z,25.43
2022-08-14T03:24:26.052Z,25.32
2022-08-14T03:25:26.004Z,25.36
2022-08-14T03:26:30.099Z,25.38
2022-08-14T03:27:26.356Z,25.43
2022-08-14T03:28:32.982Z,25.31
2022-08-14T03:29:26.315Z,25.32
2022-08-14T03:30:39.206Z,25.40
2022-08-14T03:31:27.928Z,25.43
2022-08-14T03:32:30.396Z,25.36
2022-08-14T03:33:25.861Z,25.36
2022-08-14T03:34:47.624Z,25.44
2022-08-14T03:35:37.304Z,25.40
2022-08-14T03:37:37.678Z,25.38
2022-08-14T03:37:51.035Z,25.36
2022-08-14T03:39:15.409Z,25.35
2022-08-14T03:39:25.796Z,25.40
2022-08-14T03:40:25.728Z,25.33
2022-08-14T03:41:25.725Z,25.43
2022-08-14T03:42:39.733Z,25.43
2022-08-14T03:43:28.451Z,25.38
2022-08-14T03:45:19.170Z,25.43
2022-08-14T03:45:35.078Z,25.41
2022-08-14T03:46:53.060Z,25.50
2022-08-14T03:47:34.242Z,25.51
2022-08-14T03:48:30.323Z,25.51
2022-08-14T03:49:29.360Z,25.50
2022-08-14T03:50:27.993Z,25.54
2022-08-14T03:51:27.008Z,25.48
2022-08-14T03:52:40.602Z,25.54
2022-08-14T03:53:26.103Z,25.58
2022-08-14T03:54:25.522Z,25.62
2022-08-14T03:55:25.527Z,25.60
2022-08-14T03:56:25.553Z,25.63
2022-08-14T03:57:25.497Z,25.60
2022-08-14T03:58:36.497Z,25.58
2022-08-14T03:59:28.507Z,25.62
2022-08-14T04:00:44.450Z,25.63
2022-08-14T04:01:25.474Z,25.60
2022-08-14T04:02:33.408Z,25.70
2022-08-14T04:03:25.396Z,25.65
2022-08-14T04:04:25.384Z,25.66
2022-08-14T04:05:25.371Z,25.66
2022-08-14T04:06:28.284Z,25.63
2022-08-14T04:07:26.147Z,25.70
2022-08-14T04:08:30.805Z,25.68
2022-08-14T04:09:26.776Z,25.73
2022-08-14T04:10:31.674Z,25.78
2022-08-14T04:11:25.267Z,25.81
2022-08-14T04:12:26.462Z,25.83
2022-08-14T04:13:27.864Z,25.80
2022-08-14T04:14:25.231Z,25.87
2022-08-14T04:15:26.137Z,25.87
2022-08-14T04:16:31.629Z,25.95
2022-08-14T04:17:25.175Z,25.85
2022-08-14T04:18:25.154Z,25.90
2022-08-14T04:19:32.839Z,25.91
2022-08-14T04:20:25.605Z,25.84
2022-08-14T04:21:26.102Z,25.88
2022-08-14T04:22:25.087Z,26.03
2022-08-14T04:23:30.009Z,25.99
2022-08-14T04:24:25.859Z,26.00
2022-08-14T04:25:25.075Z,26.03
2022-08-14T04:26:27.364Z,26.05
2022-08-14T04:27:25.032Z,26.05
2022-08-14T04:29:07.881Z,26.00
2022-08-14T04:29:25.007Z,26.07
2022-08-14T04:30:30.719Z,26.05
2022-08-14T04:32:56.664Z,26.15
2022-08-14T04:33:01.130Z,26.15
2022-08-14T04:33:25.299Z,26.18
2022-08-14T04:34:27.970Z,26.13
2022-08-14T04:35:24.944Z,26.13
2022-08-14T04:36:24.885Z,26.10
2022-08-14T04:37:25.644Z,26.25
2022-08-14T04:38:36.458Z,26.16
2022-08-14T04:39:24.894Z,26.28
2022-08-14T04:40:24.843Z,26.28
2022-08-14T04:41:24.862Z,26.28
2022-08-14T04:42:25.724Z,26.38
2022-08-14T04:43:24.943Z,26.37
2022-08-14T04:44:36.320Z,26.41
2022-08-14T04:45:24.803Z,26.41
2022-08-14T04:46:55.572Z,26.45
2022-08-14T04:47:24.733Z,26.53
2022-08-14T04:48:39.320Z,26.48
2022-08-14T04:49:25.649Z,26.55
2022-08-14T04:50:43.996Z,26.63
2022-08-14T04:51:24.664Z,26.60
2022-08-14T04:52:25.050Z,26.62
2022-08-14T04:53:26.522Z,26.62
2022-08-14T04:54:24.674Z,26.65
2022-08-14T04:55:24.664Z,26.63
2022-08-14T04:56:31.067Z,26.66
2022-08-14T04:57:25.122Z,26.66
2022-08-14T04:58:32.790Z,26.73
2022-08-14T04:59:24.538Z,26.75
2022-08-14T05:00:24.861Z,26.77
2022-08-14T05:01:25.206Z,26.68
2022-08-14T05:02:24.608Z,26.80
2022-08-14T05:03:25.262Z,26.73
2022-08-14T05:04:24.463Z,26.73
2022-08-14T05:05:24.462Z,26.81
2022-08-14T05:06:37.630Z,26.73
2022-08-14T05:07:46.975Z,26.81
2022-08-14T05:08:32.228Z,26.80
2022-08-14T05:09:24.434Z,26.80
2022-08-14T05:10:24.817Z,26.89
2022-08-14T05:11:24.367Z,26.89
2022-08-14T05:13:11.273Z,26.90
2022-08-14T05:13:30.107Z,26.90
2022-08-14T05:14:46.497Z,26.93
2022-08-14T05:15:24.424Z,26.84
2022-08-14T05:16:24.307Z,26.99
2022-08-14T05:17:24.312Z,26.97
2022-08-14T05:19:16.751Z,27.05
2022-08-14T05:19:26.780Z,26.97
2022-08-14T05:21:04.826Z,27.03
2022-08-14T05:21:56.922Z,27.12
2022-08-14T05:22:27.089Z,27.14
2022-08-14T05:23:24.183Z,27.14
2022-08-14T05:24:24.168Z,27.21
2022-08-14T05:25:24.211Z,27.20
2022-08-14T05:26:24.163Z,27.39
2022-08-14T05:27:24.280Z,27.36
2022-08-14T05:28:24.119Z,27.29
2022-08-14T05:29:24.100Z,27.29
2022-08-14T05:30:24.092Z,27.35
2022-08-14T05:31:24.206Z,27.37
2022-08-14T05:32:27.400Z,27.44
2022-08-14T05:33:24.044Z,27.44
2022-08-14T05:34:28.863Z,27.39
2022-08-14T05:35:24.021Z,27.49
2022-08-14T05:36:24.082Z,27.51
2022-08-14T05:37:24.664Z,27.55
2022-08-14T05:38:31.140Z,27.60
2022-08-14T05:39:23.999Z,27.60
2022-08-14T05:40:23.954Z,27.67
2022-08-14T05:41:23.960Z,27.73
2022-08-14T05:42:26.852Z,27.67
2022-08-14T05:43:23.902Z,27.68
2022-08-14T05:44:29.200Z,27.87
2022-08-14T05:45:23.881Z,27.87
2022-08-14T05:46:23.859Z,27.90
2022-08-14T05:47:23.862Z,27.98
2022-08-14T05:48:33.525Z,27.95
2022-08-14T05:49:32.742Z,28.04
2022-08-14T05:50:23.817Z,28.04
2022-08-14T05:51:23.788Z,28.04
2022-08-14T05:52:38.728Z,28.12
2022-08-14T05:53:23.759Z,28.14
2022-08-14T05:54:26.974Z,28.10
2022-08-14T05:55:23.747Z,28.19
2022-08-14T05:56:23.722Z,28.17
2022-08-14T05:57:23.815Z,28.23
2022-08-14T05:58:23.695Z,28.27
2022-08-14T05:59:36.582Z,28.32
2022-08-14T06:00:25.010Z,28.29
2022-08-14T06:01:23.683Z,28.41
2022-08-14T06:02:23.634Z,28.41
2022-08-14T06:03:23.635Z,28.44
2022-08-14T06:04:23.643Z,28.51
2022-08-14T06:05:23.610Z,28.52
2022-08-14T06:06:23.628Z,28.44
2022-08-14T06:07:23.589Z,28.56
2022-08-14T06:08:35.799Z,28.66
2022-08-14T06:09:23.588Z,28.70
2022-08-14T06:10:23.565Z,28.74
2022-08-14T06:11:27.979Z,28.81
2022-08-14T06:12:55.494Z,28.85
2022-08-14T06:13:23.508Z,28.88
2022-08-14T06:14:23.780Z,28.98
2022-08-14T06:15:27.646Z,29.07
2022-08-14T06:16:23.482Z,29.12
2022-08-14T06:17:25.871Z,29.17
2022-08-14T06:18:25.196Z,29.17
2022-08-14T06:19:23.674Z,29.24
2022-08-14T06:20:23.416Z,29.34
2022-08-14T06:21:23.497Z,29.32
2022-08-14T06:22:23.384Z,29.36
2022-08-14T06:23:23.370Z,29.49
2022-08-14T06:24:23.353Z,29.50
2022-08-14T06:25:23.434Z,29.57
2022-08-14T06:26:30.304Z,29.61
2022-08-14T06:27:24.184Z,29.63
2022-08-14T06:28:28.195Z,29.75
2022-08-14T06:29:23.361Z,29.75
2022-08-14T06:30:23.537Z,29.79
2022-08-14T06:31:23.288Z,29.81
2022-08-14T06:32:38.333Z,29.93
2022-08-14T06:33:23.287Z,29.93
2022-08-14T06:35:11.299Z,30.02
2022-08-14T06:35:23.230Z,30.18
2022-08-14T06:36:23.215Z,30.27
2022-08-14T06:37:23.179Z,30.43
2022-08-14T06:38:23.345Z,30.51
2022-08-14T06:39:37.523Z,30.73
2022-08-14T06:40:26.751Z,30.81
2022-08-14T06:41:57.625Z,30.97
2022-08-14T06:42:32.917Z,31.03
2022-08-14T06:43:27.013Z,31.15
2022-08-14T06:44:32.447Z,31.07
2022-08-14T06:45:26.464Z,31.12
2022-08-14T06:46:32.503Z,31.10
2022-08-14T06:47:23.103Z,31.24
2022-08-14T06:48:23.760Z,31.17
2022-08-14T06:49:23.032Z,31.25
2022-08-14T06:50:27.760Z,31.31
2022-08-14T06:51:23.028Z,31.37
2022-08-14T06:52:23.004Z,31.33
2022-08-14T06:53:27.623Z,31.40
2022-08-14T06:54:23.029Z,31.44
2022-08-14T06:55:26.502Z,31.49
2022-08-14T06:56:23.039Z,31.62
2022-08-14T06:57:22.984Z,31.69
2022-08-14T06:58:28.609Z,31.81
2022-08-14T06:59:22.919Z,31.84
2022-08-14T07:00:27.001Z,31.96
2022-08-14T07:01:26.956Z,32.12
2022-08-14T07:02:22.916Z,32.19
2022-08-14T07:03:23.717Z,32.23
2022-08-14T07:04:24.316Z,32.27
2022-08-14T07:05:23.727Z,32.45
2022-08-14T07:06:46.540Z,32.45
2022-08-14T07:07:22.826Z,32.56
2022-08-14T07:08:22.833Z,32.73
2022-08-14T07:09:23.249Z,32.77
2022-08-14T07:10:25.052Z,32.89
2022-08-14T07:11:22.799Z,33.07
2022-08-14T07:12:52.184Z,33.15
2022-08-14T07:13:22.799Z,33.20
2022-08-14T07:14:22.751Z,33.32
2022-08-14T07:15:22.732Z,33.46
2022-08-14T07:16:23.710Z,33.59
2022-08-14T07:17:22.714Z,33.73
2022-08-14T07:18:22.704Z,33.67
2022-08-14T07:19:23.223Z,33.74
2022-08-14T07:20:31.397Z,33.77
2022-08-14T07:21:22.700Z,33.86
2022-08-14T07:22:22.666Z,33.95
2022-08-14T07:23:22.961Z,34.11
2022-08-14T07:24:31.491Z,34.10
2022-08-14T07:25:22.723Z,34.03
2022-08-14T07:26:25.210Z,34.01
2022-08-14T07:27:22.642Z,34.10
2022-08-14T07:28:23.219Z,34.13
2022-08-14T07:29:26.109Z,34.16
2022-08-14T07:30:34.781Z,34.24
2022-08-14T07:31:22.584Z,34.21
2022-08-14T07:32:23.980Z,34.27
2022-08-14T07:33:29.096Z,34.30
2022-08-14T07:34:36.025Z,34.33
2022-08-14T07:35:22.549Z,34.30
2022-08-14T07:36:27.819Z,34.35
2022-08-14T07:37:22.518Z,34.33
2022-08-14T07:38:22.536Z,34.30
2022-08-14T07:39:28.023Z,34.38
2022-08-14T07:40:27.689Z,34.42
2022-08-14T07:41:22.491Z,34.40
2022-08-14T07:42:22.773Z,34.47
2022-08-14T07:43:23.750Z,34.38
2022-08-14T07:44:32.739Z,34.27
2022-08-14T07:45:22.442Z,34.17
2022-08-14T07:46:28.582Z,34.06
2022-08-14T07:47:22.410Z,34.11
2022-08-14T07:48:25.059Z,34.05
2022-08-14T07:49:24.174Z,34.10
2022-08-14T07:50:22.494Z,34.11
2022-08-14T07:51:22.393Z,34.11
2022-08-14T07:52:30.598Z,34.14
2022-08-14T07:53:22.374Z,34.24
2022-08-14T07:54:23.231Z,34.27
2022-08-14T07:55:22.367Z,34.43
2022-08-14T07:56:47.113Z,34.43
2022-08-14T07:57:25.109Z,34.42
2022-08-14T07:58:30.264Z,34.45
2022-08-14T07:59:41.407Z,34.50
2022-08-14T08:00:30.029Z,34.51
2022-08-14T08:01:22.282Z,34.47
2022-08-14T08:02:22.285Z,34.51
2022-08-14T08:03:23.485Z,34.54
2022-08-14T08:04:24.490Z,34.51
2022-08-14T08:05:23.310Z,34.55
2022-08-14T08:06:22.224Z,34.61
2022-08-14T08:07:22.233Z,34.61
2022-08-14T08:08:26.512Z,34.75
2022-08-14T08:09:22.559Z,34.73
2022-08-14T08:10:46.718Z,34.81
2022-08-14T08:11:22.260Z,34.93
2022-08-14T08:12:26.119Z,34.99
2022-08-14T08:13:24.460Z,35.00
2022-08-14T08:14:22.164Z,35.00
2022-08-14T08:15:22.766Z,35.02
2022-08-14T08:16:22.159Z,35.07
2022-08-14T08:17:22.127Z,35.07
2022-08-14T08:18:27.532Z,35.22
2022-08-14T08:19:22.177Z,35.24
2022-08-14T08:20:22.756Z,35.24
2022-08-14T08:21:22.099Z,35.30
2022-08-14T08:22:22.127Z,35.23
2022-08-14T08:23:22.065Z,35.23
2022-08-14T08:24:22.070Z,35.29
2022-08-14T08:25:22.047Z,35.37
2022-08-14T08:26:22.046Z,35.30
2022-08-14T08:27:22.061Z,35.45
2022-08-14T08:28:26.463Z,35.48
2022-08-14T08:29:25.033Z,35.42
2022-08-14T08:30:22.002Z,35.46
2022-08-14T08:31:22.053Z,35.55
2022-08-14T08:32:22.007Z,35.61
2022-08-14T08:33:21.978Z,35.64
2022-08-14T08:34:24.269Z,35.79
2022-08-14T08:35:21.986Z,35.80
2022-08-14T08:36:21.983Z,35.90
2022-08-14T08:37:22.746Z,36.07
2022-08-14T08:39:18.773Z,36.12
2022-08-14T08:39:22.317Z,36.23
2022-08-14T08:40:22.061Z,36.28
2022-08-14T08:41:21.940Z,36.39
2022-08-14T08:42:31.127Z,36.39
2022-08-14T08:43:21.895Z,36.46
2022-08-14T08:44:32.195Z,36.43
2022-08-14T08:45:21.873Z,36.45
2022-08-14T08:46:23.994Z,36.43
2022-08-14T08:47:21.879Z,36.43
2022-08-14T08:48:31.471Z,36.43
2022-08-14T08:49:21.867Z,36.46
2022-08-14T08:50:23.162Z,36.42
2022-08-14T08:51:21.869Z,36.43
2022-08-14T08:52:25.437Z,36.39
2022-08-14T08:53:21.818Z,36.42
2022-08-14T08:54:26.729Z,36.47
2022-08-14T08:55:21.804Z,36.40
2022-08-14T08:56:30.733Z,36.46
2022-08-14T08:57:22.764Z,36.45
2022-08-14T08:58:24.998Z,36.42
2022-08-14T08:59:21.833Z,36.33
2022-08-14T09:00:24.586Z,36.37
2022-08-14T09:01:21.816Z,36.43
2022-08-14T09:02:21.754Z,36.43
2022-08-14T09:03:21.719Z,36.52
2022-08-14T09:04:24.284Z,36.57
2022-08-14T09:05:21.803Z,36.70
2022-08-14T09:07:01.207Z,36.73
2022-08-14T09:07:21.703Z,36.74
2022-08-14T09:08:31.568Z,36.84
2022-08-14T09:09:22.308Z,36.92
2022-08-14T09:10:22.149Z,36.93
2022-08-14T09:11:21.675Z,36.95
2022-08-14T09:12:21.671Z,37.08
2022-08-14T09:13:21.636Z,37.14
2022-08-14T09:14:21.645Z,37.11
2022-08-14T09:15:21.653Z,37.10
2022-08-14T09:16:21.800Z,37.18
2022-08-14T09:17:25.926Z,37.20
2022-08-14T09:18:21.611Z,37.20
2022-08-14T09:19:21.625Z,37.25
2022-08-14T09:20:29.661Z,37.17
2022-08-14T09:21:24.163Z,37.17
2022-08-14T09:22:35.794Z,37.13
2022-08-14T09:23:34.581Z,37.06
2022-08-14T09:24:28.467Z,37.14
2022-08-14T09:26:00.290Z,37.02
2022-08-14T09:26:21.768Z,37.06
2022-08-14T09:27:22.512Z,37.07
2022-08-14T09:28:21.534Z,37.03
2022-08-14T09:29:23.401Z,37.02
2022-08-14T09:30:32.374Z,36.98
2022-08-14T09:31:22.279Z,37.08
2022-08-14T09:32:58.300Z,37.17
2022-08-14T09:33:22.655Z,37.15
2022-08-14T09:34:28.000Z,37.17
2022-08-14T09:35:21.481Z,37.14
2022-08-14T09:36:21.475Z,37.08
2022-08-14T09:37:21.441Z,37.07
2022-08-14T09:38:26.069Z,37.07
2022-08-14T09:39:23.422Z,37.11
2022-08-14T09:40:21.748Z,37.03
2022-08-14T09:41:21.424Z,37.02
2022-08-14T09:42:33.611Z,37.07
2022-08-14T09:43:24.301Z,37.14
2022-08-14T09:44:21.386Z,37.08
2022-08-14T09:45:22.353Z,37.13
2022-08-14T09:46:25.589Z,37.14
2022-08-14T09:47:21.366Z,37.14
2022-08-14T09:48:21.364Z,37.10
2022-08-14T09:49:21.355Z,37.20
2022-08-14T09:50:25.778Z,37.15
2022-08-14T09:51:25.515Z,37.30
2022-08-14T09:52:33.148Z,37.44
2022-08-14T09:53:21.332Z,37.45
2022-08-14T09:54:23.003Z,37.40
2022-08-14T09:55:24.408Z,37.45
2022-08-14T09:56:30.266Z,37.49
2022-08-14T09:57:21.309Z,37.49
2022-08-14T09:58:22.882Z,37.49
2022-08-14T09:59:21.798Z,37.55
2022-08-14T10:00:29.356Z,37.44
2022-08-14T10:01:21.266Z,37.37
2022-08-14T10:02:21.310Z,37.37
2022-08-14T10:03:21.347Z,37.35
2022-08-14T10:04:34.547Z,37.20
2022-08-14T10:05:21.217Z,37.21
2022-08-14T10:06:21.227Z,37.15
2022-08-14T10:07:21.305Z,37.17
2022-08-14T10:08:26.117Z,37.18
2022-08-14T10:09:21.205Z,37.15
2022-08-14T10:10:23.361Z,37.15
2022-08-14T10:11:23.432Z,37.23
2022-08-14T10:12:28.960Z,37.20
2022-08-14T10:13:21.258Z,37.20
2022-08-14T10:14:29.332Z,37.20
2022-08-14T10:15:21.157Z,37.20
2022-08-14T10:16:25.736Z,37.21
2022-08-14T10:17:21.810Z,37.18
2022-08-14T10:18:21.153Z,37.28
2022-08-14T10:19:21.112Z,37.33
2022-08-14T10:20:39.503Z,37.33
2022-08-14T10:21:22.579Z,37.18
2022-08-14T10:23:14.665Z,37.18
2022-08-14T10:23:22.183Z,37.28
2022-08-14T10:24:21.081Z,37.20
2022-08-14T10:25:22.649Z,37.18
2022-08-14T10:26:23.148Z,37.29
2022-08-14T10:27:21.827Z,37.35
2022-08-14T10:28:39.009Z,37.42
2022-08-14T10:29:23.705Z,37.55
2022-08-14T10:30:22.588Z,37.51
2022-08-14T10:31:25.611Z,37.60
2022-08-14T10:32:28.267Z,37.64
2022-08-14T10:33:20.998Z,37.67
2022-08-14T10:34:25.972Z,37.72
2022-08-14T10:35:22.400Z,37.80
2022-08-14T10:36:33.636Z,37.68
2022-08-14T10:37:22.968Z,37.80
2022-08-14T10:38:20.973Z,37.82
2022-08-14T10:39:21.054Z,37.82
2022-08-14T10:40:38.108Z,37.72
2022-08-14T10:41:21.075Z,37.72
2022-08-14T10:42:21.378Z,37.72
2022-08-14T10:43:23.354Z,37.72
2022-08-14T10:44:21.844Z,37.74
2022-08-14T10:45:20.922Z,37.68
2022-08-14T10:47:39.397Z,37.80
2022-08-14T10:47:41.210Z,37.90
2022-08-14T10:48:36.368Z,38.08
2022-08-14T10:49:20.895Z,38.06
2022-08-14T10:50:20.908Z,38.19
2022-08-14T10:51:20.871Z,38.17
2022-08-14T10:52:22.014Z,38.23
2022-08-14T10:53:20.867Z,38.30
2022-08-14T10:54:35.707Z,38.39
2022-08-14T10:55:21.155Z,38.34
2022-08-14T10:56:21.952Z,38.40
2022-08-14T10:57:20.924Z,38.48
2022-08-14T10:58:20.819Z,38.50
2022-08-14T10:59:20.808Z,38.46
2022-08-14T11:00:30.191Z,38.45
2022-08-14T11:01:20.807Z,38.67
2022-08-14T11:02:22.245Z,38.65
2022-08-14T11:03:35.825Z,38.74
2022-08-14T11:04:26.075Z,38.83
2022-08-14T11:05:20.787Z,38.87
2022-08-14T11:06:20.793Z,38.92
2022-08-14T11:07:21.586Z,38.97
2022-08-14T11:08:20.792Z,38.96
2022-08-14T11:09:20.735Z,39.06
2022-08-14T11:10:20.742Z,39.06
2022-08-14T11:11:20.736Z,39.09
2022-08-14T11:12:33.821Z,39.11
2022-08-14T11:13:20.737Z,39.11
2022-08-14T11:14:22.836Z,39.12
2022-08-14T11:15:20.762Z,39.19
2022-08-14T11:16:20.681Z,39.09
2022-08-14T11:17:21.662Z,39.06
2022-08-14T11:18:30.034Z,39.06
2022-08-14T11:19:20.690Z,39.11
2022-08-14T11:20:20.677Z,39.14
2022-08-14T11:21:21.323Z,39.11
2022-08-14T11:22:52.674Z,39.14
2022-08-14T11:23:20.644Z,39.25
2022-08-14T11:24:50.831Z,39.18
2022-08-14T11:25:21.391Z,39.24
2022-08-14T11:26:20.618Z,39.34
2022-08-14T11:27:22.095Z,39.34
2022-08-14T11:28:20.910Z,39.40
2022-08-14T11:29:20.665Z,39.33
2022-08-14T11:30:51.621Z,39.36
2022-08-14T11:31:22.091Z,39.29
2022-08-14T11:32:21.385Z,39.24
2022-08-14T11:33:20.630Z,39.22
2022-08-14T11:34:32.168Z,39.12
2022-08-14T11:35:20.564Z,39.04
2022-08-14T11:36:20.549Z,39.07
2022-08-14T11:37:35.259Z,39.00
2022-08-14T11:38:21.509Z,39.00
2022-08-14T11:39:33.564Z,38.97
2022-08-14T11:40:28.428Z,39.03
2022-08-14T11:41:20.531Z,39.09
2022-08-14T11:42:56.732Z,39.17
2022-08-14T11:43:29.005Z,39.18
2022-08-14T11:44:45.342Z,39.29
2022-08-14T11:45:23.474Z,39.33
2022-08-14T11:46:29.831Z,39.21
2022-08-14T11:47:20.470Z,39.21
2022-08-14T11:49:02.562Z,39.17
2022-08-14T11:49:22.091Z,39.02
2022-08-14T11:50:33.528Z,38.95
2022-08-14T11:51:20.479Z,38.97
2022-08-14T11:52:21.718Z,38.92
2022-08-14T11:53:20.422Z,38.87
2022-08-14T11:54:34.759Z,38.96
2022-08-14T11:55:25.446Z,39.06
2022-08-14T11:56:25.486Z,39.02
2022-08-14T11:57:22.919Z,39.00
2022-08-14T11:58:24.218Z,39.00
2022-08-14T11:59:26.275Z,38.96
2022-08-14T12:00:20.376Z,38.86
2022-08-14T12:01:20.373Z,38.79
2022-08-14T12:03:01.325Z,38.73
2022-08-14T12:03:37.869Z,38.65
2022-08-14T12:04:32.360Z,38.58
2022-08-14T12:05:20.407Z,38.49
2022-08-14T12:06:28.129Z,38.42
2022-08-14T12:07:20.345Z,38.31
2022-08-14T12:08:24.439Z,38.34
2022-08-14T12:09:20.309Z,38.38
2022-08-14T12:10:27.193Z,38.30
2022-08-14T12:11:20.302Z,38.34
2022-08-14T12:12:34.977Z,38.36
2022-08-14T12:13:20.330Z,38.33
2022-08-14T12:14:30.276Z,38.34
2022-08-14T12:15:20.260Z,38.52
2022-08-14T12:16:20.405Z,38.49
2022-08-14T12:17:24.152Z,38.58
2022-08-14T12:18:20.238Z,38.58
2022-08-14T12:19:20.263Z,38.65
2022-08-14T12:20:29.826Z,38.62
2022-08-14T12:21:20.241Z,38.61
2022-08-14T12:22:29.926Z,38.49
2022-08-14T12:23:20.223Z,38.43
2022-08-14T12:24:36.284Z,38.46
2022-08-14T12:25:20.191Z,38.48
2022-08-14T12:26:39.428Z,38.46
2022-08-14T12:27:24.886Z,38.54
2022-08-14T12:28:27.101Z,38.43
2022-08-14T12:29:20.158Z,38.52
2022-08-14T12:30:21.007Z,38.36
2022-08-14T12:31:20.577Z,38.48
2022-08-14T12:32:20.234Z,38.30
2022-08-14T12:33:20.155Z,38.26
2022-08-14T12:34:22.915Z,38.17
2022-08-14T12:35:20.156Z,38.23
2022-08-14T12:36:20.643Z,38.12
2022-08-14T12:37:20.104Z,38.14
2022-08-14T12:38:21.184Z,38.17
2022-08-14T12:39:20.240Z,38.19
2022-08-14T12:40:20.968Z,38.14
2022-08-14T12:41:21.835Z,38.20
2022-08-14T12:42:27.389Z,38.20
2022-08-14T12:43:21.461Z,38.21
2022-08-14T12:44:20.932Z,38.27
2022-08-14T12:45:20.045Z,38.27
2022-08-14T12:46:26.676Z,38.31
2022-08-14T12:47:20.024Z,38.31
2022-08-14T12:48:21.363Z,38.34
2022-08-14T12:49:20.041Z,38.34
2022-08-14T12:50:20.313Z,38.33
2022-08-14T12:51:21.737Z,38.31
2022-08-14T12:52:19.987Z,38.36